Reliable — D5IZ6 — position and weather

sailwx.info

Track history (hours):
 
Tides and Currents Weather Stations Pressure Air Temp Water Temp Dewpoint Dewpoint Depression Visibility Wind Speed Wind Dir Waves Ship Positions

Reliable

Last reported at 2018-Jun-13 08:52 UTC. Time now 2018-Jun-23 08:29 UTC.
Position N 29°05' W 094°17'.
Warning: this ship's position is 9 days out of date.

Length 178 m; draft 10.7 m.

Type: Cargo ship. MMSI: 636017035.

Date/timePositionNaut miles runAvg speedWind from/ knotsBaromVisibWave heightAir tempDewpointWater temp
2018-Jun-13 08:52N 29°05' W 094°17'1512.3
2018-Jun-13 07:38N 29°13' W 094°31'8 8.2
2018-Jun-13 06:42N 29°18' W 094°37'411.3
2018-Jun-13 06:21N 29°20' W 094°41'412.4
2018-Jun-13 06:00N 29°21' W 094°46'612.6
2018-Jun-13 05:30N 29°26' W 094°50'612.4
2018-Jun-13 05:00N 29°31' W 094°53'511.0
2018-Jun-13 04:30N 29°36' W 094°57'510.4
2018-Jun-13 04:01N 29°41' W 094°59'3 5.4
2018-Jun-13 03:30N 29°43' W 095°01'3 6.1
2018-Jun-13 03:00N 29°45' W 095°04'5 6.0
2018-Jun-13 02:10N 29°44' W 095°10'  
2018-Jun-09 06:25N 29°43' W 095°14'0 0.0
2018-Jun-09 02:57N 29°43' W 095°14'0 0.0
2018-Jun-09 02:08N 29°43' W 095°14'0 0.0
2018-Jun-09 01:58N 29°43' W 095°14'0 0.0
2018-Jun-07 10:08N 29°43' W 095°14'0 1.4
2018-Jun-07 09:54N 29°43' W 095°14'3 5.3
2018-Jun-07 09:19N 29°45' W 095°11'3 5.7
2018-Jun-07 08:46N 29°44' W 095°07'2 6.5
2018-Jun-07 08:30N 29°45' W 095°06'4 7.8
2018-Jun-07 08:00N 29°44' W 095°01'5 9.9
2018-Jun-07 07:30N 29°40' W 094°58'612.1
2018-Jun-07 07:00N 29°34' W 094°55'612.5
2018-Jun-07 06:30N 29°29' W 094°52'712.7
2018-Jun-07 05:59N 29°23' W 094°49'511.2
2018-Jun-07 05:30N 29°21' W 094°43'611.9
2018-Jun-07 05:00N 29°19' W 094°36'2 3.9
2018-Jun-07 04:30N 29°18' W 094°35'1 3.0
2018-Jun-07 04:00N 29°16' W 094°33'3 6.6
2018-Jun-07 03:30N 29°15' W 094°30'4 7.2
2018-Jun-07 02:59N 29°12' W 094°27'20 9.5
2018-Jun-07 00:52N 29°01' W 094°08'5 7.5
2018-Jun-07 00:14N 28°58' W 094°04'2 9.5
2018-Jun-07 00:00N 28°57' W 094°02'10 9.6
2018-Jun-06 22:58N 28°51' W 093°52'41 0.9
2018-Jun-05 01:38N 29°14' W 093°13'1 7.9
2018-Jun-05 01:29N 29°15' W 093°13'3211.6
2018-Jun-04 22:43N 29°46' W 093°21'311.8
2018-Jun-04 22:30N 29°49' W 093°21'510.9
2018-Jun-04 22:00N 29°54' W 093°20'5 9.3
2018-Jun-04 21:30N 29°59' W 093°20'3 6.9
2018-Jun-04 21:00N 30°03' W 093°20'4 7.1
2018-Jun-04 20:30N 30°06' W 093°20'3 6.8
2018-Jun-04 20:00N 30°09' W 093°20'3 6.8
2018-Jun-04 19:30N 30°12' W 093°17'2 3.7
2018-Jun-04 18:58N 30°13' W 093°15'0 0.0
2018-Jun-04 18:25N 30°13' W 093°15'0 0.0
2018-Jun-04 17:58N 30°13' W 093°15'0 0.0
2018-Jun-04 17:28N 30°13' W 093°15'0 0.0
2018-Jun-04 16:58N 30°13' W 093°15'0 0.0
2018-Jun-04 16:28N 30°13' W 093°15'0 0.0
2018-Jun-04 15:58N 30°13' W 093°15'0 0.0
2018-Jun-04 15:28N 30°13' W 093°15'0 0.0
2018-Jun-04 14:58N 30°13' W 093°15'0 0.0
2018-Jun-04 14:28N 30°13' W 093°15'0 0.0
2018-Jun-04 13:58N 30°13' W 093°15'0 0.0
2018-Jun-04 13:28N 30°13' W 093°15'0 0.0
2018-Jun-04 12:55N 30°13' W 093°15'0 0.0
2018-Jun-04 12:28N 30°13' W 093°15'0 0.0
2018-Jun-04 11:58N 30°13' W 093°15'0 0.0
2018-Jun-04 11:28N 30°13' W 093°15'0 0.0
2018-Jun-04 10:58N 30°13' W 093°15'0 0.0
2018-Jun-04 10:28N 30°13' W 093°15'0 0.0
2018-Jun-04 09:58N 30°13' W 093°15'0 0.0
2018-Jun-04 09:28N 30°13' W 093°15'0 0.0
2018-Jun-04 08:58N 30°13' W 093°15'0 0.0
2018-Jun-04 08:28N 30°13' W 093°15'0 0.0
2018-Jun-04 07:58N 30°13' W 093°15'0 0.0
2018-Jun-04 07:28N 30°13' W 093°15'0 0.0
2018-Jun-04 06:58N 30°13' W 093°15'0 0.0
2018-Jun-04 06:28N 30°13' W 093°15'0 0.0
2018-Jun-04 05:46N 30°13' W 093°15'0 0.0
2018-Jun-04 05:28N 30°13' W 093°15'0 0.0
2018-Jun-04 04:58N 30°13' W 093°15'0 0.0
2018-Jun-04 04:28N 30°13' W 093°15'0 0.0
2018-Jun-04 03:58N 30°13' W 093°15'0 0.0
2018-Jun-04 03:28N 30°13' W 093°15'0 0.0
2018-Jun-04 02:58N 30°13' W 093°15'0 0.0
2018-Jun-04 02:28N 30°13' W 093°15'0 0.0
2018-Jun-04 01:58N 30°13' W 093°15'0 0.0
2018-Jun-04 01:28N 30°13' W 093°15'0 0.0
2018-Jun-04 00:58N 30°13' W 093°15'0 0.0
2018-Jun-04 00:28N 30°13' W 093°15'0 0.0
2018-Jun-03 23:58N 30°13' W 093°15'0 0.0
2018-Jun-03 23:25N 30°13' W 093°15'0 0.0
2018-Jun-03 22:55N 30°13' W 093°15'0 0.0
2018-Jun-03 22:28N 30°13' W 093°15'0 0.0
2018-Jun-03 21:58N 30°13' W 093°15'0 0.0
2018-Jun-03 21:28N 30°13' W 093°15'0 0.0
2018-Jun-03 20:58N 30°13' W 093°15'0 0.0
2018-Jun-03 20:28N 30°13' W 093°15'0 0.0
2018-Jun-03 19:58N 30°13' W 093°15'0 0.0
2018-Jun-03 19:28N 30°13' W 093°15'0 0.0
2018-Jun-03 18:55N 30°13' W 093°15'0 0.0
2018-Jun-03 18:28N 30°13' W 093°15'0 0.0
2018-Jun-03 17:58N 30°13' W 093°15'0 0.0
2018-Jun-03 17:28N 30°13' W 093°15'0 0.0
2018-Jun-03 16:58N 30°13' W 093°15'0 0.0
2018-Jun-03 16:28N 30°13' W 093°15'0 0.0
2018-Jun-03 15:55N 30°13' W 093°15'0 0.0
2018-Jun-03 15:25N 30°13' W 093°15'0 0.0
2018-Jun-03 14:58N 30°13' W 093°15'0 0.0
2018-Jun-03 14:28N 30°13' W 093°15'0 0.0
2018-Jun-03 13:58N 30°13' W 093°15'0 0.0
2018-Jun-03 13:28N 30°13' W 093°15'0 0.0
2018-Jun-03 12:55N 30°13' W 093°15'0 0.0
2018-Jun-03 12:28N 30°13' W 093°15'0 0.0
2018-Jun-03 11:55N 30°13' W 093°15'0 0.0
2018-Jun-03 11:28N 30°13' W 093°15'0 0.0
2018-Jun-03 10:58N 30°13' W 093°15'0 0.0
2018-Jun-03 10:28N 30°13' W 093°15'0 0.0
2018-Jun-03 09:58N 30°13' W 093°15'0 0.0
2018-Jun-03 09:28N 30°13' W 093°15'0 0.0
2018-Jun-03 08:58N 30°13' W 093°15'  
Track history (hours):
 
Tides and Currents Weather Stations Pressure Air Temp Water Temp Dewpoint Dewpoint Depression Visibility Wind Speed Wind Dir Waves Ship Positions

Reliable

Last reported at 2018-Jun-13 08:52 UTC. Time now 2018-Jun-23 08:29 UTC.
Position N 29°05' W 094°17'.
Warning: this ship's position is 9 days out of date.

Length 178 m; draft 10.7 m.

Type: Cargo ship. MMSI: 636017035.

Date/timePositionNaut miles runAvg speedWind from/ knotsBaromVisibWave heightAir tempDewpointWater temp
2018-Jun-13 08:52N 29°05' W 094°17'1512.3
2018-Jun-13 07:38N 29°13' W 094°31'8 8.2
2018-Jun-13 06:42N 29°18' W 094°37'411.3
2018-Jun-13 06:21N 29°20' W 094°41'412.4
2018-Jun-13 06:00N 29°21' W 094°46'612.6
2018-Jun-13 05:30N 29°26' W 094°50'612.4
2018-Jun-13 05:00N 29°31' W 094°53'511.0
2018-Jun-13 04:30N 29°36' W 094°57'510.4
2018-Jun-13 04:01N 29°41' W 094°59'3 5.4
2018-Jun-13 03:30N 29°43' W 095°01'3 6.1
2018-Jun-13 03:00N 29°45' W 095°04'5 6.0
2018-Jun-13 02:10N 29°44' W 095°10'  
2018-Jun-09 06:25N 29°43' W 095°14'0 0.0
2018-Jun-09 02:57N 29°43' W 095°14'0 0.0
2018-Jun-09 02:08N 29°43' W 095°14'0 0.0
2018-Jun-09 01:58N 29°43' W 095°14'0 0.0
2018-Jun-07 10:08N 29°43' W 095°14'0 1.4
2018-Jun-07 09:54N 29°43' W 095°14'3 5.3
2018-Jun-07 09:19N 29°45' W 095°11'3 5.7
2018-Jun-07 08:46N 29°44' W 095°07'2 6.5
2018-Jun-07 08:30N 29°45' W 095°06'4 7.8
2018-Jun-07 08:00N 29°44' W 095°01'5 9.9
2018-Jun-07 07:30N 29°40' W 094°58'612.1
2018-Jun-07 07:00N 29°34' W 094°55'612.5
2018-Jun-07 06:30N 29°29' W 094°52'712.7
2018-Jun-07 05:59N 29°23' W 094°49'511.2
2018-Jun-07 05:30N 29°21' W 094°43'611.9
2018-Jun-07 05:00N 29°19' W 094°36'2 3.9
2018-Jun-07 04:30N 29°18' W 094°35'1 3.0
2018-Jun-07 04:00N 29°16' W 094°33'3 6.6
2018-Jun-07 03:30N 29°15' W 094°30'4 7.2
2018-Jun-07 02:59N 29°12' W 094°27'20 9.5
2018-Jun-07 00:52N 29°01' W 094°08'5 7.5
2018-Jun-07 00:14N 28°58' W 094°04'2 9.5
2018-Jun-07 00:00N 28°57' W 094°02'10 9.6
2018-Jun-06 22:58N 28°51' W 093°52'41 0.9
2018-Jun-05 01:38N 29°14' W 093°13'1 7.9
2018-Jun-05 01:29N 29°15' W 093°13'3211.6
2018-Jun-04 22:43N 29°46' W 093°21'311.8
2018-Jun-04 22:30N 29°49' W 093°21'510.9
2018-Jun-04 22:00N 29°54' W 093°20'5 9.3
2018-Jun-04 21:30N 29°59' W 093°20'3 6.9
2018-Jun-04 21:00N 30°03' W 093°20'4 7.1
2018-Jun-04 20:30N 30°06' W 093°20'3 6.8
2018-Jun-04 20:00N 30°09' W 093°20'3 6.8
2018-Jun-04 19:30N 30°12' W 093°17'2 3.7
2018-Jun-04 18:58N 30°13' W 093°15'0 0.0
2018-Jun-04 18:25N 30°13' W 093°15'0 0.0
2018-Jun-04 17:58N 30°13' W 093°15'0 0.0
2018-Jun-04 17:28N 30°13' W 093°15'0 0.0
2018-Jun-04 16:58N 30°13' W 093°15'0 0.0
2018-Jun-04 16:28N 30°13' W 093°15'0 0.0
2018-Jun-04 15:58N 30°13' W 093°15'0 0.0
2018-Jun-04 15:28N 30°13' W 093°15'0 0.0
2018-Jun-04 14:58N 30°13' W 093°15'0 0.0
2018-Jun-04 14:28N 30°13' W 093°15'0 0.0
2018-Jun-04 13:58N 30°13' W 093°15'0 0.0
2018-Jun-04 13:28N 30°13' W 093°15'0 0.0
2018-Jun-04 12:55N 30°13' W 093°15'0 0.0
2018-Jun-04 12:28N 30°13' W 093°15'0 0.0
2018-Jun-04 11:58N 30°13' W 093°15'0 0.0
2018-Jun-04 11:28N 30°13' W 093°15'0 0.0
2018-Jun-04 10:58N 30°13' W 093°15'0 0.0
2018-Jun-04 10:28N 30°13' W 093°15'0 0.0
2018-Jun-04 09:58N 30°13' W 093°15'0 0.0
2018-Jun-04 09:28N 30°13' W 093°15'0 0.0
2018-Jun-04 08:58N 30°13' W 093°15'0 0.0
2018-Jun-04 08:28N 30°13' W 093°15'0 0.0
2018-Jun-04 07:58N 30°13' W 093°15'0 0.0
2018-Jun-04 07:28N 30°13' W 093°15'0 0.0
2018-Jun-04 06:58N 30°13' W 093°15'0 0.0
2018-Jun-04 06:28N 30°13' W 093°15'0 0.0
2018-Jun-04 05:46N 30°13' W 093°15'0 0.0
2018-Jun-04 05:28N 30°13' W 093°15'0 0.0
2018-Jun-04 04:58N 30°13' W 093°15'0 0.0
2018-Jun-04 04:28N 30°13' W 093°15'0 0.0
2018-Jun-04 03:58N 30°13' W 093°15'0 0.0
2018-Jun-04 03:28N 30°13' W 093°15'0 0.0
2018-Jun-04 02:58N 30°13' W 093°15'0 0.0
2018-Jun-04 02:28N 30°13' W 093°15'0 0.0
2018-Jun-04 01:58N 30°13' W 093°15'0 0.0
2018-Jun-04 01:28N 30°13' W 093°15'0 0.0
2018-Jun-04 00:58N 30°13' W 093°15'0 0.0
2018-Jun-04 00:28N 30°13' W 093°15'0 0.0
2018-Jun-03 23:58N 30°13' W 093°15'0 0.0
2018-Jun-03 23:25N 30°13' W 093°15'0 0.0
2018-Jun-03 22:55N 30°13' W 093°15'0 0.0
2018-Jun-03 22:28N 30°13' W 093°15'0 0.0
2018-Jun-03 21:58N 30°13' W 093°15'0 0.0
2018-Jun-03 21:28N 30°13' W 093°15'0 0.0
2018-Jun-03 20:58N 30°13' W 093°15'0 0.0
2018-Jun-03 20:28N 30°13' W 093°15'0 0.0
2018-Jun-03 19:58N 30°13' W 093°15'0 0.0
2018-Jun-03 19:28N 30°13' W 093°15'0 0.0
2018-Jun-03 18:55N 30°13' W 093°15'0 0.0
2018-Jun-03 18:28N 30°13' W 093°15'0 0.0
2018-Jun-03 17:58N 30°13' W 093°15'0 0.0
2018-Jun-03 17:28N 30°13' W 093°15'0 0.0
2018-Jun-03 16:58N 30°13' W 093°15'0 0.0
2018-Jun-03 16:28N 30°13' W 093°15'0 0.0
2018-Jun-03 15:55N 30°13' W 093°15'0 0.0
2018-Jun-03 15:25N 30°13' W 093°15'0 0.0
2018-Jun-03 14:58N 30°13' W 093°15'0 0.0
2018-Jun-03 14:28N 30°13' W 093°15'0 0.0
2018-Jun-03 13:58N 30°13' W 093°15'0 0.0
2018-Jun-03 13:28N 30°13' W 093°15'0 0.0
2018-Jun-03 12:55N 30°13' W 093°15'0 0.0
2018-Jun-03 12:28N 30°13' W 093°15'0 0.0
2018-Jun-03 11:55N 30°13' W 093°15'0 0.0
2018-Jun-03 11:28N 30°13' W 093°15'0 0.0
2018-Jun-03 10:58N 30°13' W 093°15'0 0.0
2018-Jun-03 10:28N 30°13' W 093°15'0 0.0
2018-Jun-03 09:58N 30°13' W 093°15'0 0.0
2018-Jun-03 09:28N 30°13' W 093°15'0 0.0
2018-Jun-03 08:58N 30°13' W 093°15'  

Dump ship's entire track history